sim
Sign-in with your pilot id or email,
or register
Callsign
Passwort

Schedule Details

Flight Number: DLH1839 (2)
Departure: Tenerife South Airport (GCTS) at 14:10
Arrival: Munich Airport (EDDM) at 18:50
Route: Lufthansa Passenger Schedule. Enter filed route here before submitting Pirep.

Weather Information
Getting current METAR information for GCTS 220400Z 34004KT CAVOK 22/20 Q1016 NOSIG
Getting current METAR information for EDDM 220420Z VRB02KT 2000 1000N R08L/0750V1300N R08R/P2000N BCFG FEW002 08/08 Q1014 TEMPO 1200

Schedule Frequency

Route Map